sensor_id;sensor_type;location;lat;lon;timestamp;temperature;humidity
28171;DHT22;15458;53.346;-1.688;2023-03-04T00:01:38;4.70;99.90
28171;DHT22;15458;53.346;-1.688;2023-03-04T00:04:04;4.70;99.90
28171;DHT22;15458;53.346;-1.688;2023-03-04T00:06:29;4.70;99.90
28171;DHT22;15458;53.346;-1.688;2023-03-04T00:08:55;4.70;99.90
28171;DHT22;15458;53.346;-1.688;2023-03-04T00:11:21;4.70;99.90
28171;DHT22;15458;53.346;-1.688;2023-03-04T00:13:46;4.70;99.90
28171;DHT22;15458;53.346;-1.688;2023-03-04T00:16:12;4.70;99.90
28171;DHT22;15458;53.346;-1.688;2023-03-04T00:18:38;4.70;99.90
28171;DHT22;15458;53.346;-1.688;2023-03-04T00:21:04;4.60;99.90
28171;DHT22;15458;53.346;-1.688;2023-03-04T00:23:30;4.60;99.90
28171;DHT22;15458;53.346;-1.688;2023-03-04T00:25:56;4.60;99.90
28171;DHT22;15458;53.346;-1.688;2023-03-04T00:28:21;4.60;99.90
28171;DHT22;15458;53.346;-1.688;2023-03-04T00:30:47;4.60;99.90
28171;DHT22;15458;53.346;-1.688;2023-03-04T00:33:13;4.60;99.90
28171;DHT22;15458;53.346;-1.688;2023-03-04T00:35:39;4.60;99.90
28171;DHT22;15458;53.346;-1.688;2023-03-04T00:38:04;4.60;99.90
28171;DHT22;15458;53.346;-1.688;2023-03-04T00:40:30;4.60;99.90
28171;DHT22;15458;53.346;-1.688;2023-03-04T00:42:55;4.60;99.90
28171;DHT22;15458;53.346;-1.688;2023-03-04T00:45:21;4.60;99.90
28171;DHT22;15458;53.346;-1.688;2023-03-04T00:47:47;4.60;99.90
28171;DHT22;15458;53.346;-1.688;2023-03-04T00:50:12;4.60;99.90
28171;DHT22;15458;53.346;-1.688;2023-03-04T00:52:38;4.50;99.90
28171;DHT22;15458;53.346;-1.688;2023-03-04T00:55:05;4.60;99.90
28171;DHT22;15458;53.346;-1.688;2023-03-04T00:57:31;4.60;99.90
28171;DHT22;15458;53.346;-1.688;2023-03-04T00:59:57;4.50;99.90
28171;DHT22;15458;53.346;-1.688;2023-03-04T01:02:22;4.50;99.90
28171;DHT22;15458;53.346;-1.688;2023-03-04T01:04:48;4.50;99.90
28171;DHT22;15458;53.346;-1.688;2023-03-04T01:07:14;4.60;99.90
28171;DHT22;15458;53.346;-1.688;2023-03-04T01:09:39;4.60;99.90
28171;DHT22;15458;53.346;-1.688;2023-03-04T01:12:05;4.50;99.90
28171;DHT22;15458;53.346;-1.688;2023-03-04T01:14:31;4.50;99.90
28171;DHT22;15458;53.346;-1.688;2023-03-04T01:16:56;4.50;99.90
28171;DHT22;15458;53.346;-1.688;2023-03-04T01:19:22;4.50;99.90
28171;DHT22;15458;53.346;-1.688;2023-03-04T01:21:48;4.50;99.90
28171;DHT22;15458;53.346;-1.688;2023-03-04T01:24:13;4.50;99.90
28171;DHT22;15458;53.346;-1.688;2023-03-04T01:26:39;4.50;99.90
28171;DHT22;15458;53.346;-1.688;2023-03-04T01:29:05;4.50;99.90
28171;DHT22;15458;53.346;-1.688;2023-03-04T01:31:30;4.40;99.90
28171;DHT22;15458;53.346;-1.688;2023-03-04T01:33:56;4.40;99.90
28171;DHT22;15458;53.346;-1.688;2023-03-04T01:36:21;4.40;99.90
28171;DHT22;15458;53.346;-1.688;2023-03-04T01:38:47;4.40;99.90
28171;DHT22;15458;53.346;-1.688;2023-03-04T01:41:22;4.40;99.90
28171;DHT22;15458;53.346;-1.688;2023-03-04T01:43:48;4.40;99.90
28171;DHT22;15458;53.346;-1.688;2023-03-04T01:46:14;4.40;99.90
28171;DHT22;15458;53.346;-1.688;2023-03-04T01:48:42;4.30;99.90
28171;DHT22;15458;53.346;-1.688;2023-03-04T01:51:14;4.30;99.90
28171;DHT22;15458;53.346;-1.688;2023-03-04T01:53:41;4.30;99.90
28171;DHT22;15458;53.346;-1.688;2023-03-04T01:56:23;4.30;99.90
28171;DHT22;15458;53.346;-1.688;2023-03-04T01:59:16;4.30;99.90
28171;DHT22;15458;53.346;-1.688;2023-03-04T02:01:45;4.40;99.90
28171;DHT22;15458;53.346;-1.688;2023-03-04T02:04:12;4.30;99.90
28171;DHT22;15458;53.346;-1.688;2023-03-04T02:06:39;4.30;99.90
28171;DHT22;15458;53.346;-1.688;2023-03-04T02:09:06;4.30;99.90
28171;DHT22;15458;53.346;-1.688;2023-03-04T02:11:33;4.30;99.90
28171;DHT22;15458;53.346;-1.688;2023-03-04T02:14:00;4.30;99.90
28171;DHT22;15458;53.346;-1.688;2023-03-04T02:16:26;4.30;99.90
28171;DHT22;15458;53.346;-1.688;2023-03-04T02:18:52;4.30;99.90
28171;DHT22;15458;53.346;-1.688;2023-03-04T02:21:36;4.30;99.90
28171;DHT22;15458;53.346;-1.688;2023-03-04T02:27:05;4.20;99.90
28171;DHT22;15458;53.346;-1.688;2023-03-04T02:29:31;4.20;99.90
28171;DHT22;15458;53.346;-1.688;2023-03-04T02:31:57;4.20;99.90
28171;DHT22;15458;53.346;-1.688;2023-03-04T02:34:30;4.20;99.90
28171;DHT22;15458;53.346;-1.688;2023-03-04T02:36:58;4.20;99.90
28171;DHT22;15458;53.346;-1.688;2023-03-04T02:39:30;4.10;99.90
28171;DHT22;15458;53.346;-1.688;2023-03-04T02:41:57;4.10;99.90
28171;DHT22;15458;53.346;-1.688;2023-03-04T02:44:32;4.10;99.90
28171;DHT22;15458;53.346;-1.688;2023-03-04T02:46:59;4.10;99.90
28171;DHT22;15458;53.346;-1.688;2023-03-04T02:49:26;4.10;99.90
28171;DHT22;15458;53.346;-1.688;2023-03-04T02:52:02;4.00;99.90
28171;DHT22;15458;53.346;-1.688;2023-03-04T02:54:28;4.00;99.90
28171;DHT22;15458;53.346;-1.688;2023-03-04T02:56:56;4.00;99.90
28171;DHT22;15458;53.346;-1.688;2023-03-04T02:59:23;4.00;99.90
28171;DHT22;15458;53.346;-1.688;2023-03-04T03:01:49;4.00;99.90
28171;DHT22;15458;53.346;-1.688;2023-03-04T03:04:15;4.00;99.90
28171;DHT22;15458;53.346;-1.688;2023-03-04T03:06:41;4.00;99.90
28171;DHT22;15458;53.346;-1.688;2023-03-04T03:09:07;4.00;99.90
28171;DHT22;15458;53.346;-1.688;2023-03-04T03:11:33;4.00;99.90
28171;DHT22;15458;53.346;-1.688;2023-03-04T03:13:59;4.00;99.90
28171;DHT22;15458;53.346;-1.688;2023-03-04T03:16:25;3.90;99.90
28171;DHT22;15458;53.346;-1.688;2023-03-04T03:18:50;4.00;99.90
28171;DHT22;15458;53.346;-1.688;2023-03-04T03:21:17;3.90;99.90
28171;DHT22;15458;53.346;-1.688;2023-03-04T03:23:43;3.90;99.90
28171;DHT22;15458;53.346;-1.688;2023-03-04T03:26:09;3.90;99.90
28171;DHT22;15458;53.346;-1.688;2023-03-04T03:28:34;3.80;99.90
28171;DHT22;15458;53.346;-1.688;2023-03-04T03:31:00;3.80;99.90
28171;DHT22;15458;53.346;-1.688;2023-03-04T03:33:26;3.80;99.90
28171;DHT22;15458;53.346;-1.688;2023-03-04T03:35:52;3.80;99.90
28171;DHT22;15458;53.346;-1.688;2023-03-04T03:38:17;3.80;99.90
28171;DHT22;15458;53.346;-1.688;2023-03-04T03:40:43;3.80;99.90
28171;DHT22;15458;53.346;-1.688;2023-03-04T03:43:09;3.80;99.90
28171;DHT22;15458;53.346;-1.688;2023-03-04T03:45:35;3.80;99.90
28171;DHT22;15458;53.346;-1.688;2023-03-04T03:48:00;3.80;99.90
28171;DHT22;15458;53.346;-1.688;2023-03-04T03:50:26;3.80;99.90
28171;DHT22;15458;53.346;-1.688;2023-03-04T03:52:53;3.80;99.90
28171;DHT22;15458;53.346;-1.688;2023-03-04T03:55:20;3.80;99.90
28171;DHT22;15458;53.346;-1.688;2023-03-04T03:57:45;3.80;99.90
28171;DHT22;15458;53.346;-1.688;2023-03-04T04:00:12;3.80;99.90
28171;DHT22;15458;53.346;-1.688;2023-03-04T04:02:38;3.80;99.90
28171;DHT22;15458;53.346;-1.688;2023-03-04T04:05:04;3.80;99.90
28171;DHT22;15458;53.346;-1.688;2023-03-04T04:07:30;3.70;99.90
28171;DHT22;15458;53.346;-1.688;2023-03-04T04:09:56;3.70;99.90
28171;DHT22;15458;53.346;-1.688;2023-03-04T04:12:22;3.70;99.90
28171;DHT22;15458;53.346;-1.688;2023-03-04T04:14:48;3.70;99.90
28171;DHT22;15458;53.346;-1.688;2023-03-04T04:17:13;3.70;99.90
28171;DHT22;15458;53.346;-1.688;2023-03-04T04:19:40;3.60;99.90
28171;DHT22;15458;53.346;-1.688;2023-03-04T04:22:07;3.60;99.90
28171;DHT22;15458;53.346;-1.688;2023-03-04T04:24:34;3.60;99.90
28171;DHT22;15458;53.346;-1.688;2023-03-04T04:27:00;3.60;99.90
28171;DHT22;15458;53.346;-1.688;2023-03-04T04:29:26;3.50;99.90
28171;DHT22;15458;53.346;-1.688;2023-03-04T04:31:52;3.50;99.90
28171;DHT22;15458;53.346;-1.688;2023-03-04T04:34:17;3.50;99.90
28171;DHT22;15458;53.346;-1.688;2023-03-04T04:36:43;3.50;99.90
28171;DHT22;15458;53.346;-1.688;2023-03-04T04:39:09;3.50;99.90
28171;DHT22;15458;53.346;-1.688;2023-03-04T04:41:40;3.40;99.90
28171;DHT22;15458;53.346;-1.688;2023-03-04T04:44:07;3.50;99.90
28171;DHT22;15458;53.346;-1.688;2023-03-04T04:46:33;3.50;99.90
28171;DHT22;15458;53.346;-1.688;2023-03-04T04:49:00;3.40;99.90
28171;DHT22;15458;53.346;-1.688;2023-03-04T04:51:26;3.40;99.90
28171;DHT22;15458;53.346;-1.688;2023-03-04T04:53:52;3.40;99.90
28171;DHT22;15458;53.346;-1.688;2023-03-04T04:56:21;3.40;99.90
28171;DHT22;15458;53.346;-1.688;2023-03-04T04:58:47;3.40;99.90
28171;DHT22;15458;53.346;-1.688;2023-03-04T05:01:14;3.30;99.90
28171;DHT22;15458;53.346;-1.688;2023-03-04T05:03:40;3.40;99.90
28171;DHT22;15458;53.346;-1.688;2023-03-04T05:06:07;3.30;99.90
28171;DHT22;15458;53.346;-1.688;2023-03-04T05:08:33;3.30;99.90
28171;DHT22;15458;53.346;-1.688;2023-03-04T05:10:59;3.30;99.90
28171;DHT22;15458;53.346;-1.688;2023-03-04T05:13:26;3.30;99.90
28171;DHT22;15458;53.346;-1.688;2023-03-04T05:15:53;3.30;99.90
28171;DHT22;15458;53.346;-1.688;2023-03-04T05:18:20;3.30;99.90
28171;DHT22;15458;53.346;-1.688;2023-03-04T05:20:59;3.30;99.90
28171;DHT22;15458;53.346;-1.688;2023-03-04T05:23:27;3.30;99.90
28171;DHT22;15458;53.346;-1.688;2023-03-04T05:25:53;3.30;99.90
28171;DHT22;15458;53.346;-1.688;2023-03-04T05:28:19;3.30;99.90
28171;DHT22;15458;53.346;-1.688;2023-03-04T05:30:45;3.30;99.90
28171;DHT22;15458;53.346;-1.688;2023-03-04T05:33:12;3.30;99.90
28171;DHT22;15458;53.346;-1.688;2023-03-04T05:35:39;3.30;99.90
28171;DHT22;15458;53.346;-1.688;2023-03-04T05:38:08;3.30;99.90
28171;DHT22;15458;53.346;-1.688;2023-03-04T05:40:34;3.30;99.90
28171;DHT22;15458;53.346;-1.688;2023-03-04T05:43:00;3.20;99.90
28171;DHT22;15458;53.346;-1.688;2023-03-04T05:45:26;3.20;99.90
28171;DHT22;15458;53.346;-1.688;2023-03-04T05:47:53;3.20;99.90
28171;DHT22;15458;53.346;-1.688;2023-03-04T05:50:20;3.20;99.90
28171;DHT22;15458;53.346;-1.688;2023-03-04T05:52:45;3.20;99.90
28171;DHT22;15458;53.346;-1.688;2023-03-04T05:55:12;3.20;99.90
28171;DHT22;15458;53.346;-1.688;2023-03-04T05:57:38;3.20;99.90
28171;DHT22;15458;53.346;-1.688;2023-03-04T06:00:05;3.20;99.90
28171;DHT22;15458;53.346;-1.688;2023-03-04T06:02:34;3.20;99.90
28171;DHT22;15458;53.346;-1.688;2023-03-04T06:04:59;3.20;99.90
28171;DHT22;15458;53.346;-1.688;2023-03-04T06:07:25;3.20;99.90
28171;DHT22;15458;53.346;-1.688;2023-03-04T06:09:51;3.20;99.90
28171;DHT22;15458;53.346;-1.688;2023-03-04T06:12:16;3.20;99.90
28171;DHT22;15458;53.346;-1.688;2023-03-04T06:14:42;3.20;99.90
28171;DHT22;15458;53.346;-1.688;2023-03-04T06:17:07;3.20;99.90
28171;DHT22;15458;53.346;-1.688;2023-03-04T06:19:33;3.20;99.90
28171;DHT22;15458;53.346;-1.688;2023-03-04T06:21:59;3.20;99.90
28171;DHT22;15458;53.346;-1.688;2023-03-04T06:24:24;3.20;99.90
28171;DHT22;15458;53.346;-1.688;2023-03-04T06:26:52;3.20;99.90
28171;DHT22;15458;53.346;-1.688;2023-03-04T06:29:18;3.20;99.90
28171;DHT22;15458;53.346;-1.688;2023-03-04T06:31:43;3.20;99.90
28171;DHT22;15458;53.346;-1.688;2023-03-04T06:34:10;3.20;99.90
28171;DHT22;15458;53.346;-1.688;2023-03-04T06:36:36;3.20;99.90
28171;DHT22;15458;53.346;-1.688;2023-03-04T06:39:04;3.20;99.90
28171;DHT22;15458;53.346;-1.688;2023-03-04T06:41:29;3.20;99.90
28171;DHT22;15458;53.346;-1.688;2023-03-04T06:43:55;3.20;99.90
28171;DHT22;15458;53.346;-1.688;2023-03-04T06:46:22;3.20;99.90
28171;DHT22;15458;53.346;-1.688;2023-03-04T06:48:48;3.20;99.90
28171;DHT22;15458;53.346;-1.688;2023-03-04T06:51:14;3.20;99.90
28171;DHT22;15458;53.346;-1.688;2023-03-04T06:53:40;3.30;99.90
28171;DHT22;15458;53.346;-1.688;2023-03-04T06:56:08;3.30;99.90
28171;DHT22;15458;53.346;-1.688;2023-03-04T06:58:34;3.20;99.90
28171;DHT22;15458;53.346;-1.688;2023-03-04T07:01:24;3.30;99.90
28171;DHT22;15458;53.346;-1.688;2023-03-04T07:03:51;3.30;99.90
28171;DHT22;15458;53.346;-1.688;2023-03-04T07:06:20;3.30;99.90
28171;DHT22;15458;53.346;-1.688;2023-03-04T07:08:47;3.30;99.90
28171;DHT22;15458;53.346;-1.688;2023-03-04T07:11:13;3.30;99.90
28171;DHT22;15458;53.346;-1.688;2023-03-04T07:13:39;3.30;99.90
28171;DHT22;15458;53.346;-1.688;2023-03-04T07:16:06;3.30;99.90
28171;DHT22;15458;53.346;-1.688;2023-03-04T07:18:33;3.30;99.90
28171;DHT22;15458;53.346;-1.688;2023-03-04T07:20:58;3.30;99.90
28171;DHT22;15458;53.346;-1.688;2023-03-04T07:23:24;3.30;99.90
28171;DHT22;15458;53.346;-1.688;2023-03-04T07:25:50;3.30;99.90
28171;DHT22;15458;53.346;-1.688;2023-03-04T07:28:16;3.40;99.90
28171;DHT22;15458;53.346;-1.688;2023-03-04T07:30:41;3.40;99.90
28171;DHT22;15458;53.346;-1.688;2023-03-04T07:33:07;3.40;99.90
28171;DHT22;15458;53.346;-1.688;2023-03-04T07:35:33;3.40;99.90
28171;DHT22;15458;53.346;-1.688;2023-03-04T07:37:58;3.40;99.90
28171;DHT22;15458;53.346;-1.688;2023-03-04T07:40:25;3.40;99.90
28171;DHT22;15458;53.346;-1.688;2023-03-04T07:42:52;3.40;99.90
28171;DHT22;15458;53.346;-1.688;2023-03-04T07:45:18;3.40;99.90
28171;DHT22;15458;53.346;-1.688;2023-03-04T07:47:44;3.40;99.90
28171;DHT22;15458;53.346;-1.688;2023-03-04T07:50:11;3.40;99.90
28171;DHT22;15458;53.346;-1.688;2023-03-04T07:52:43;3.50;99.90
28171;DHT22;15458;53.346;-1.688;2023-03-04T07:55:11;3.50;99.90
28171;DHT22;15458;53.346;-1.688;2023-03-04T07:57:45;3.50;99.90
28171;DHT22;15458;53.346;-1.688;2023-03-04T08:00:14;3.50;99.90
28171;DHT22;15458;53.346;-1.688;2023-03-04T08:02:40;3.50;99.90
28171;DHT22;15458;53.346;-1.688;2023-03-04T08:05:06;3.50;99.90
28171;DHT22;15458;53.346;-1.688;2023-03-04T08:07:32;3.50;99.90
28171;DHT22;15458;53.346;-1.688;2023-03-04T08:09:58;3.50;99.90
28171;DHT22;15458;53.346;-1.688;2023-03-04T08:12:24;3.50;99.90
28171;DHT22;15458;53.346;-1.688;2023-03-04T08:14:50;3.60;99.90
28171;DHT22;15458;53.346;-1.688;2023-03-04T08:17:16;3.60;99.90
28171;DHT22;15458;53.346;-1.688;2023-03-04T08:19:42;3.60;99.90
28171;DHT22;15458;53.346;-1.688;2023-03-04T08:22:08;3.60;99.90
28171;DHT22;15458;53.346;-1.688;2023-03-04T08:24:34;3.70;99.90
28171;DHT22;15458;53.346;-1.688;2023-03-04T08:27:00;3.70;99.90
28171;DHT22;15458;53.346;-1.688;2023-03-04T08:29:26;3.70;99.90
28171;DHT22;15458;53.346;-1.688;2023-03-04T08:31:52;3.70;99.90
28171;DHT22;15458;53.346;-1.688;2023-03-04T08:34:22;3.70;99.90
28171;DHT22;15458;53.346;-1.688;2023-03-04T08:36:48;3.70;99.90
28171;DHT22;15458;53.346;-1.688;2023-03-04T08:39:15;3.80;99.90
28171;DHT22;15458;53.346;-1.688;2023-03-04T08:41:41;3.80;99.90
28171;DHT22;15458;53.346;-1.688;2023-03-04T08:44:07;3.80;99.90
28171;DHT22;15458;53.346;-1.688;2023-03-04T08:46:35;3.80;99.90
28171;DHT22;15458;53.346;-1.688;2023-03-04T08:49:02;3.90;99.90
28171;DHT22;15458;53.346;-1.688;2023-03-04T08:51:28;3.90;99.90
28171;DHT22;15458;53.346;-1.688;2023-03-04T08:53:53;3.90;99.90
28171;DHT22;15458;53.346;-1.688;2023-03-04T08:56:19;3.90;99.90
28171;DHT22;15458;53.346;-1.688;2023-03-04T08:58:45;4.00;99.90
28171;DHT22;15458;53.346;-1.688;2023-03-04T09:01:12;4.00;99.90
28171;DHT22;15458;53.346;-1.688;2023-03-04T09:03:38;4.00;99.90
28171;DHT22;15458;53.346;-1.688;2023-03-04T09:06:06;4.00;99.90
28171;DHT22;15458;53.346;-1.688;2023-03-04T09:08:32;4.10;99.90
28171;DHT22;15458;53.346;-1.688;2023-03-04T09:10:58;4.10;99.90
28171;DHT22;15458;53.346;-1.688;2023-03-04T09:13:24;4.10;99.90
28171;DHT22;15458;53.346;-1.688;2023-03-04T09:15:52;4.10;99.90
28171;DHT22;15458;53.346;-1.688;2023-03-04T09:18:19;4.10;99.90
28171;DHT22;15458;53.346;-1.688;2023-03-04T09:20:47;4.10;99.90
28171;DHT22;15458;53.346;-1.688;2023-03-04T09:23:14;4.20;99.90
28171;DHT22;15458;53.346;-1.688;2023-03-04T09:25:41;4.20;99.90
28171;DHT22;15458;53.346;-1.688;2023-03-04T09:28:09;4.20;99.90
28171;DHT22;15458;53.346;-1.688;2023-03-04T09:30:37;4.20;99.90
28171;DHT22;15458;53.346;-1.688;2023-03-04T09:33:07;4.30;99.90
28171;DHT22;15458;53.346;-1.688;2023-03-04T09:35:33;4.30;99.90
28171;DHT22;15458;53.346;-1.688;2023-03-04T09:38:01;4.30;99.90
28171;DHT22;15458;53.346;-1.688;2023-03-04T09:40:36;4.30;99.90
28171;DHT22;15458;53.346;-1.688;2023-03-04T09:43:04;4.30;99.90
28171;DHT22;15458;53.346;-1.688;2023-03-04T09:45:42;4.30;99.90
28171;DHT22;15458;53.346;-1.688;2023-03-04T09:48:14;4.30;99.90
28171;DHT22;15458;53.346;-1.688;2023-03-04T09:50:58;4.30;99.90
28171;DHT22;15458;53.346;-1.688;2023-03-04T09:53:57;4.30;99.90
28171;DHT22;15458;53.346;-1.688;2023-03-04T09:56:25;4.30;99.90
28171;DHT22;15458;53.346;-1.688;2023-03-04T09:59:24;4.30;99.90
28171;DHT22;15458;53.346;-1.688;2023-03-04T10:01:57;4.30;99.90
28171;DHT22;15458;53.346;-1.688;2023-03-04T10:06:56;4.30;99.90
28171;DHT22;15458;53.346;-1.688;2023-03-04T10:09:49;4.30;99.90
28171;DHT22;15458;53.346;-1.688;2023-03-04T10:12:21;4.40;99.90
28171;DHT22;15458;53.346;-1.688;2023-03-04T10:14:56;4.30;99.90
28171;DHT22;15458;53.346;-1.688;2023-03-04T10:17:43;4.40;99.90
28171;DHT22;15458;53.346;-1.688;2023-03-04T10:20:22;4.40;99.90
28171;DHT22;15458;53.346;-1.688;2023-03-04T10:22:50;4.40;99.90
28171;DHT22;15458;53.346;-1.688;2023-03-04T10:25:18;4.40;99.90
28171;DHT22;15458;53.346;-1.688;2023-03-04T10:28:06;4.50;99.90
28171;DHT22;15458;53.346;-1.688;2023-03-04T10:31:01;4.50;99.90
28171;DHT22;15458;53.346;-1.688;2023-03-04T10:33:31;4.60;99.90
28171;DHT22;15458;53.346;-1.688;2023-03-04T10:38:40;4.70;99.90
28171;DHT22;15458;53.346;-1.688;2023-03-04T10:41:15;4.70;99.90
28171;DHT22;15458;53.346;-1.688;2023-03-04T10:43:42;4.80;99.90
28171;DHT22;15458;53.346;-1.688;2023-03-04T10:46:14;4.80;99.90
28171;DHT22;15458;53.346;-1.688;2023-03-04T10:48:42;4.90;99.90
28171;DHT22;15458;53.346;-1.688;2023-03-04T10:51:29;4.90;99.90
28171;DHT22;15458;53.346;-1.688;2023-03-04T10:53:59;5.00;99.90
28171;DHT22;15458;53.346;-1.688;2023-03-04T10:56:41;5.00;99.90
28171;DHT22;15458;53.346;-1.688;2023-03-04T10:59:30;5.10;99.90
28171;DHT22;15458;53.346;-1.688;2023-03-04T11:01:58;5.10;99.90
28171;DHT22;15458;53.346;-1.688;2023-03-04T11:04:25;5.00;99.90
28171;DHT22;15458;53.346;-1.688;2023-03-04T11:06:52;5.00;99.90
28171;DHT22;15458;53.346;-1.688;2023-03-04T11:09:24;5.10;99.90
28171;DHT22;15458;53.346;-1.688;2023-03-04T11:11:52;5.10;99.90
28171;DHT22;15458;53.346;-1.688;2023-03-04T11:16:54;5.20;99.90
28171;DHT22;15458;53.346;-1.688;2023-03-04T11:19:21;5.20;99.90
28171;DHT22;15458;53.346;-1.688;2023-03-04T11:21:48;5.20;99.90
28171;DHT22;15458;53.346;-1.688;2023-03-04T11:24:20;5.30;99.90
28171;DHT22;15458;53.346;-1.688;2023-03-04T11:27:20;5.40;99.90
28171;DHT22;15458;53.346;-1.688;2023-03-04T11:29:59;5.40;99.90
28171;DHT22;15458;53.346;-1.688;2023-03-04T11:32:32;5.40;99.90
28171;DHT22;15458;53.346;-1.688;2023-03-04T11:35:38;5.50;99.90
28171;DHT22;15458;53.346;-1.688;2023-03-04T11:38:19;5.50;99.90
28171;DHT22;15458;53.346;-1.688;2023-03-04T11:40:59;5.50;99.90
28171;DHT22;15458;53.346;-1.688;2023-03-04T11:43:39;5.60;99.40
28171;DHT22;15458;53.346;-1.688;2023-03-04T12:03:36;5.60;98.10
28171;DHT22;15458;53.346;-1.688;2023-03-04T12:36:06;5.60;97.30
28171;DHT22;15458;53.346;-1.688;2023-03-04T12:44:06;5.60;96.90
28171;DHT22;15458;53.346;-1.688;2023-03-04T12:52:50;5.80;96.90
28171;DHT22;15458;53.346;-1.688;2023-03-04T12:55:25;5.80;96.60
28171;DHT22;15458;53.346;-1.688;2023-03-04T12:57:54;5.80;96.50
28171;DHT22;15458;53.346;-1.688;2023-03-04T13:00:39;5.80;96.40
28171;DHT22;15458;53.346;-1.688;2023-03-04T13:09:29;5.80;96.00
28171;DHT22;15458;53.346;-1.688;2023-03-04T13:12:18;5.80;96.00
28171;DHT22;15458;53.346;-1.688;2023-03-04T13:17:39;5.90;96.00
28171;DHT22;15458;53.346;-1.688;2023-03-04T13:20:37;6.00;95.80
28171;DHT22;15458;53.346;-1.688;2023-03-04T13:25:45;6.10;95.60
28171;DHT22;15458;53.346;-1.688;2023-03-04T13:28:32;6.20;95.50
28171;DHT22;15458;53.346;-1.688;2023-03-04T13:36:04;6.40;94.80
28171;DHT22;15458;53.346;-1.688;2023-03-04T13:38:35;6.40;94.60
28171;DHT22;15458;53.346;-1.688;2023-03-04T13:41:21;6.40;94.50
28171;DHT22;15458;53.346;-1.688;2023-03-04T13:44:00;6.60;94.50
28171;DHT22;15458;53.346;-1.688;2023-03-04T13:51:39;7.80;92.70
28171;DHT22;15458;53.346;-1.688;2023-03-04T13:54:29;8.10;91.90
28171;DHT22;15458;53.346;-1.688;2023-03-04T13:57:20;8.20;91.40
28171;DHT22;15458;53.346;-1.688;2023-03-04T13:59:54;8.30;91.00
28171;DHT22;15458;53.346;-1.688;2023-03-04T14:02:22;8.20;90.50
28171;DHT22;15458;53.346;-1.688;2023-03-04T14:07:30;8.00;89.90
28171;DHT22;15458;53.346;-1.688;2023-03-04T14:10:05;7.80;90.00
28171;DHT22;15458;53.346;-1.688;2023-03-04T14:12:51;7.80;90.10
28171;DHT22;15458;53.346;-1.688;2023-03-04T14:15:25;7.80;90.30
28171;DHT22;15458;53.346;-1.688;2023-03-04T14:17:54;7.80;90.30
28171;DHT22;15458;53.346;-1.688;2023-03-04T14:20:31;7.80;90.20
28171;DHT22;15458;53.346;-1.688;2023-03-04T14:22:59;7.80;90.10
28171;DHT22;15458;53.346;-1.688;2023-03-04T14:25:29;7.80;89.90
28171;DHT22;15458;53.346;-1.688;2023-03-04T14:28:17;7.70;89.60
28171;DHT22;15458;53.346;-1.688;2023-03-04T14:30:54;7.70;89.70
28171;DHT22;15458;53.346;-1.688;2023-03-04T14:33:26;7.70;89.50
28171;DHT22;15458;53.346;-1.688;2023-03-04T14:36:00;7.70;89.30
28171;DHT22;15458;53.346;-1.688;2023-03-04T14:38:34;7.70;89.50
28171;DHT22;15458;53.346;-1.688;2023-03-04T14:41:27;7.80;89.20
28171;DHT22;15458;53.346;-1.688;2023-03-04T14:43:59;7.80;88.90
28171;DHT22;15458;53.346;-1.688;2023-03-04T14:46:32;7.80;88.10
28171;DHT22;15458;53.346;-1.688;2023-03-04T14:48:59;7.90;88.00
28171;DHT22;15458;53.346;-1.688;2023-03-04T14:52:02;8.10;88.00
28171;DHT22;15458;53.346;-1.688;2023-03-04T14:54:32;8.20;87.30
28171;DHT22;15458;53.346;-1.688;2023-03-04T14:56:59;8.20;87.10
28171;DHT22;15458;53.346;-1.688;2023-03-04T14:59:34;8.20;87.00
28171;DHT22;15458;53.346;-1.688;2023-03-04T15:02:29;8.20;87.00
28171;DHT22;15458;53.346;-1.688;2023-03-04T15:05:01;8.20;86.90
28171;DHT22;15458;53.346;-1.688;2023-03-04T15:07:34;8.20;86.90
28171;DHT22;15458;53.346;-1.688;2023-03-04T15:10:02;8.20;86.60
28171;DHT22;15458;53.346;-1.688;2023-03-04T15:12:30;8.00;86.30
28171;DHT22;15458;53.346;-1.688;2023-03-04T15:14:58;8.00;87.40
28171;DHT22;15458;53.346;-1.688;2023-03-04T15:20:01;7.80;86.70
28171;DHT22;15458;53.346;-1.688;2023-03-04T15:22:28;7.70;86.70
28171;DHT22;15458;53.346;-1.688;2023-03-04T15:24:54;7.50;86.90
28171;DHT22;15458;53.346;-1.688;2023-03-04T15:27:21;7.40;87.00
28171;DHT22;15458;53.346;-1.688;2023-03-04T15:29:51;7.30;88.00
28171;DHT22;15458;53.346;-1.688;2023-03-04T15:32:26;7.20;87.60
28171;DHT22;15458;53.346;-1.688;2023-03-04T15:34:52;7.20;87.90
28171;DHT22;15458;53.346;-1.688;2023-03-04T15:37:26;7.10;88.00
28171;DHT22;15458;53.346;-1.688;2023-03-04T15:39:52;7.10;88.10
28171;DHT22;15458;53.346;-1.688;2023-03-04T15:42:19;7.00;88.30
28171;DHT22;15458;53.346;-1.688;2023-03-04T15:44:45;7.00;88.30
28171;DHT22;15458;53.346;-1.688;2023-03-04T15:47:11;6.90;88.30
28171;DHT22;15458;53.346;-1.688;2023-03-04T15:49:39;6.80;88.30
28171;DHT22;15458;53.346;-1.688;2023-03-04T15:52:10;6.70;88.50
28171;DHT22;15458;53.346;-1.688;2023-03-04T15:54:38;6.70;89.00
28171;DHT22;15458;53.346;-1.688;2023-03-04T15:57:11;6.60;88.90
28171;DHT22;15458;53.346;-1.688;2023-03-04T15:59:40;6.60;89.20
28171;DHT22;15458;53.346;-1.688;2023-03-04T16:02:14;6.60;89.60
28171;DHT22;15458;53.346;-1.688;2023-03-04T16:04:43;6.60;89.70
28171;DHT22;15458;53.346;-1.688;2023-03-04T16:07:20;6.60;89.90
28171;DHT22;15458;53.346;-1.688;2023-03-04T16:09:51;6.50;89.80
28171;DHT22;15458;53.346;-1.688;2023-03-04T16:12:18;6.50;90.00
28171;DHT22;15458;53.346;-1.688;2023-03-04T16:14:43;6.40;90.00
28171;DHT22;15458;53.346;-1.688;2023-03-04T16:17:11;6.40;90.10
28171;DHT22;15458;53.346;-1.688;2023-03-04T16:19:37;6.40;90.30
28171;DHT22;15458;53.346;-1.688;2023-03-04T16:22:03;6.30;90.30
28171;DHT22;15458;53.346;-1.688;2023-03-04T16:24:32;6.30;90.40
28171;DHT22;15458;53.346;-1.688;2023-03-04T16:26:58;6.30;90.40
28171;DHT22;15458;53.346;-1.688;2023-03-04T16:29:24;6.30;90.40
28171;DHT22;15458;53.346;-1.688;2023-03-04T16:31:50;6.30;90.50
28171;DHT22;15458;53.346;-1.688;2023-03-04T16:34:18;6.30;90.60
28171;DHT22;15458;53.346;-1.688;2023-03-04T16:36:44;6.20;90.70
28171;DHT22;15458;53.346;-1.688;2023-03-04T16:39:18;6.20;90.70
28171;DHT22;15458;53.346;-1.688;2023-03-04T16:41:45;6.10;90.80
28171;DHT22;15458;53.346;-1.688;2023-03-04T16:44:10;6.10;90.90
28171;DHT22;15458;53.346;-1.688;2023-03-04T16:46:39;6.10;91.00
28171;DHT22;15458;53.346;-1.688;2023-03-04T16:49:04;6.10;91.00
28171;DHT22;15458;53.346;-1.688;2023-03-04T16:51:50;6.00;90.90
28171;DHT22;15458;53.346;-1.688;2023-03-04T16:54:27;5.90;91.00
28171;DHT22;15458;53.346;-1.688;2023-03-04T16:56:55;5.80;91.00
28171;DHT22;15458;53.346;-1.688;2023-03-04T16:59:20;5.60;91.10
28171;DHT22;15458;53.346;-1.688;2023-03-04T17:01:47;5.60;91.20
28171;DHT22;15458;53.346;-1.688;2023-03-04T17:04:12;5.50;91.40
28171;DHT22;15458;53.346;-1.688;2023-03-04T17:06:38;5.50;91.90
28171;DHT22;15458;53.346;-1.688;2023-03-04T17:09:05;5.50;91.60
28171;DHT22;15458;53.346;-1.688;2023-03-04T17:11:31;5.40;91.60
28171;DHT22;15458;53.346;-1.688;2023-03-04T17:13:57;5.30;91.70
28171;DHT22;15458;53.346;-1.688;2023-03-04T17:16:22;5.30;91.80
28171;DHT22;15458;53.346;-1.688;2023-03-04T17:18:48;5.30;91.90
28171;DHT22;15458;53.346;-1.688;2023-03-04T17:21:17;5.20;92.00